createdAt,value
2019-01-20T00:00:01.980Z,26.70
2019-01-20T00:02:49.074Z,25.00
2019-01-20T00:05:36.284Z,31.42
2019-01-20T00:08:23.748Z,31.55
2019-01-20T00:11:16.561Z,22.87
2019-01-20T00:13:58.369Z,23.17
2019-01-20T00:16:45.914Z,25.13
2019-01-20T00:19:33.588Z,20.17
2019-01-20T00:22:20.822Z,22.20
2019-01-20T00:25:08.331Z,21.97
2019-01-20T00:27:55.691Z,26.43
2019-01-20T00:30:43.454Z,23.63
2019-01-20T00:33:31.111Z,21.43
2019-01-20T00:36:18.408Z,26.40
2019-01-20T00:39:06.939Z,23.77
2019-01-20T00:41:58.762Z,27.98
2019-01-20T00:44:46.117Z,24.43
2019-01-20T00:47:33.878Z,26.83
2019-01-20T00:50:21.270Z,30.60
2019-01-20T00:53:08.862Z,26.10
2019-01-20T00:55:56.167Z,26.70
2019-01-20T00:58:51.247Z,24.37
2019-01-20T01:01:39.116Z,22.23
2019-01-20T01:04:26.433Z,22.47
2019-01-20T01:07:21.807Z,32.22
2019-01-20T01:10:08.854Z,31.15
2019-01-20T01:12:55.829Z,24.60
2019-01-20T01:15:43.356Z,28.03
2019-01-20T01:18:31.837Z,26.23
2019-01-20T01:21:28.529Z,22.60
2019-01-20T01:24:15.936Z,24.13
2019-01-20T01:27:03.728Z,27.53
2019-01-20T01:29:51.153Z,22.97
2019-01-20T01:35:45.163Z,23.50
2019-01-20T01:38:32.255Z,23.50
2019-01-20T01:41:19.630Z,25.07
2019-01-20T01:44:06.995Z,24.30
2019-01-20T01:46:54.516Z,22.33
2019-01-20T01:49:41.955Z,22.00
2019-01-20T01:52:29.850Z,23.27
2019-01-20T01:55:17.247Z,24.60
2019-01-20T01:58:05.342Z,29.50
2019-01-20T02:00:53.067Z,25.83
2019-01-20T02:03:40.247Z,28.63
2019-01-20T02:06:30.161Z,23.13
2019-01-20T02:09:30.110Z,22.90
2019-01-20T02:12:18.050Z,26.93
2019-01-20T02:15:05.975Z,21.37
2019-01-20T02:17:54.037Z,21.13
2019-01-20T02:20:41.794Z,18.43
2019-01-20T02:23:29.960Z,23.93
2019-01-20T02:26:19.360Z,23.33
2019-01-20T02:29:06.912Z,24.70
2019-01-20T02:31:55.390Z,30.98
2019-01-20T02:34:42.504Z,34.47
2019-01-20T02:37:29.374Z,25.80
2019-01-20T02:40:18.167Z,22.37
2019-01-20T02:43:05.586Z,29.40
2019-01-20T02:45:52.771Z,24.60
2019-01-20T02:48:40.512Z,23.03
2019-01-20T02:51:29.092Z,19.53
2019-01-20T02:54:17.011Z,20.67
2019-01-20T02:57:04.608Z,20.57
2019-01-20T02:59:52.375Z,21.37
2019-01-20T03:02:40.096Z,23.73
2019-01-20T03:05:27.063Z,22.83
2019-01-20T03:08:14.343Z,30.00
2019-01-20T03:11:01.625Z,28.52
2019-01-20T03:13:49.287Z,25.33
2019-01-20T03:16:37.138Z,23.03
2019-01-20T03:19:24.375Z,22.03
2019-01-20T03:22:12.562Z,28.40
2019-01-20T03:25:00.432Z,27.23
2019-01-20T03:27:48.028Z,22.67
2019-01-20T03:30:36.045Z,21.80
2019-01-20T03:33:23.610Z,22.00
2019-01-20T03:36:11.309Z,22.30
2019-01-20T03:38:58.719Z,22.83
2019-01-20T03:44:52.019Z,23.90
2019-01-20T03:47:39.404Z,22.83
2019-01-20T03:53:39.708Z,31.58
2019-01-20T03:56:26.952Z,32.60
2019-01-20T04:02:20.568Z,29.02
2019-01-20T04:05:08.703Z,24.57
2019-01-20T04:07:56.653Z,21.53
2019-01-20T04:10:44.237Z,24.60
2019-01-20T04:13:31.543Z,22.03
2019-01-20T04:16:19.013Z,22.57
2019-01-20T04:19:07.308Z,20.73
2019-01-20T04:21:57.695Z,20.53
2019-01-20T04:24:53.058Z,23.17
2019-01-20T04:27:40.871Z,30.10
2019-01-20T04:30:28.662Z,24.57
2019-01-20T04:33:16.095Z,25.87
2019-01-20T04:36:03.283Z,25.30
2019-01-20T04:38:50.757Z,21.80
2019-01-20T04:41:38.254Z,22.13
2019-01-20T04:44:26.914Z,22.10
2019-01-20T04:47:15.938Z,20.07
2019-01-20T04:50:04.129Z,21.33
2019-01-20T04:52:53.198Z,26.47
2019-01-20T04:55:40.830Z,26.87
2019-01-20T04:58:28.347Z,25.70
2019-01-20T05:01:19.096Z,26.53
2019-01-20T05:04:06.288Z,27.33
2019-01-20T05:06:56.465Z,26.93
2019-01-20T05:09:42.933Z,24.13
2019-01-20T05:12:37.585Z,27.97
2019-01-20T05:15:20.934Z,24.73
2019-01-20T05:18:08.460Z,21.47
2019-01-20T05:20:56.106Z,31.10
2019-01-20T05:23:43.845Z,24.97
2019-01-20T05:26:31.564Z,22.97
2019-01-20T05:29:19.368Z,26.50
2019-01-20T05:32:07.357Z,26.63
2019-01-20T05:34:56.980Z,26.60
2019-01-20T05:37:55.009Z,25.70
2019-01-20T05:40:45.330Z,21.87
2019-01-20T05:43:33.801Z,25.37
2019-01-20T05:46:21.147Z,27.53
2019-01-20T05:49:08.685Z,26.23
2019-01-20T05:51:57.235Z,24.13
2019-01-20T05:54:45.216Z,27.07
2019-01-20T05:57:32.738Z,28.37
2019-01-20T06:00:20.836Z,25.93
2019-01-20T06:03:08.318Z,23.73
2019-01-20T06:05:55.537Z,40.00
2019-01-20T06:08:44.131Z,28.73
2019-01-20T06:11:31.075Z,27.17
2019-01-20T06:14:18.726Z,26.80
2019-01-20T06:17:05.949Z,25.60
2019-01-20T06:19:53.379Z,24.10
2019-01-20T06:22:40.693Z,22.60
2019-01-20T06:25:28.137Z,36.85
2019-01-20T06:28:15.681Z,26.87
2019-01-20T06:31:03.058Z,27.30
2019-01-20T06:33:50.709Z,26.37
2019-01-20T06:36:39.275Z,36.33
2019-01-20T06:39:27.217Z,29.60
2019-01-20T06:42:14.777Z,26.33
2019-01-20T06:45:02.261Z,26.10
2019-01-20T06:47:49.803Z,28.93
2019-01-20T06:50:37.422Z,32.47
2019-01-20T06:53:25.656Z,24.97
2019-01-20T06:56:13.284Z,34.63
2019-01-20T06:59:01.323Z,27.87
2019-01-20T07:01:48.996Z,34.20
2019-01-20T07:04:36.575Z,26.30
2019-01-20T07:07:24.036Z,27.30
2019-01-20T07:10:11.428Z,28.20
2019-01-20T07:12:59.015Z,37.58
2019-01-20T07:15:47.970Z,33.03
2019-01-20T07:18:36.020Z,42.10
2019-01-20T07:21:24.162Z,28.80
2019-01-20T07:24:11.860Z,30.27
2019-01-20T07:26:59.850Z,30.90
2019-01-20T07:29:47.469Z,26.43
2019-01-20T07:32:34.738Z,32.40
2019-01-20T07:35:23.417Z,25.97
2019-01-20T07:38:12.091Z,29.03
2019-01-20T07:40:59.844Z,36.78
2019-01-20T07:43:48.156Z,31.00
2019-01-20T07:46:36.001Z,28.90
2019-01-20T07:49:24.156Z,35.40
2019-01-20T07:52:11.976Z,33.27
2019-01-20T07:54:59.866Z,29.50
2019-01-20T07:57:47.550Z,34.17
2019-01-20T08:00:35.750Z,39.72
2019-01-20T08:03:23.193Z,31.30
2019-01-20T08:06:10.907Z,29.57
2019-01-20T08:08:59.450Z,33.17
2019-01-20T08:11:46.512Z,32.17
2019-01-20T08:14:34.233Z,31.33
2019-01-20T08:17:21.874Z,33.13
2019-01-20T08:20:21.161Z,34.37
2019-01-20T08:23:09.472Z,31.13
2019-01-20T08:29:04.772Z,33.33
2019-01-20T08:31:52.214Z,37.50
2019-01-20T08:34:39.922Z,35.27
2019-01-20T08:37:28.890Z,44.73
2019-01-20T08:40:20.654Z,37.57
2019-01-20T08:43:08.689Z,33.90
2019-01-20T08:46:02.817Z,36.20
2019-01-20T08:48:51.261Z,31.20
2019-01-20T08:51:39.484Z,37.83
2019-01-20T08:54:26.952Z,33.70
2019-01-20T08:57:14.998Z,31.77
2019-01-20T09:00:02.557Z,33.53
2019-01-20T09:02:50.215Z,33.67
2019-01-20T09:05:37.499Z,33.03
2019-01-20T09:08:24.876Z,36.73
2019-01-20T09:11:12.069Z,35.97
2019-01-20T09:13:59.514Z,36.40
2019-01-20T09:16:47.889Z,33.93
2019-01-20T09:19:35.050Z,35.17
2019-01-20T09:22:22.599Z,37.22
2019-01-20T09:25:12.151Z,35.53
2019-01-20T09:27:59.661Z,32.90
2019-01-20T09:30:50.900Z,31.20
2019-01-20T09:33:38.082Z,31.33
2019-01-20T09:36:25.627Z,38.40
2019-01-20T09:39:20.729Z,29.97
2019-01-20T09:42:08.280Z,33.27
2019-01-20T09:44:55.667Z,33.17
2019-01-20T09:47:43.190Z,40.35
2019-01-20T09:50:30.390Z,33.03
2019-01-20T09:53:17.977Z,38.33
2019-01-20T09:56:05.487Z,35.20
2019-01-20T09:58:52.820Z,33.63
2019-01-20T10:01:40.489Z,31.70
2019-01-20T10:04:27.728Z,31.27
2019-01-20T10:07:15.171Z,31.07
2019-01-20T10:10:02.616Z,30.50
2019-01-20T10:12:50.172Z,30.37
2019-01-20T10:15:37.545Z,27.43
2019-01-20T10:18:32.123Z,33.55
2019-01-20T10:21:22.325Z,34.37
2019-01-20T10:24:12.782Z,34.03
2019-01-20T10:27:00.313Z,34.07
2019-01-20T10:29:47.874Z,30.80
2019-01-20T10:32:35.599Z,29.03
2019-01-20T10:35:38.778Z,27.27
2019-01-20T10:38:26.101Z,29.50
2019-01-20T10:41:13.747Z,27.23
2019-01-20T10:44:02.403Z,31.23
2019-01-20T10:46:48.893Z,30.80
2019-01-20T10:49:44.454Z,25.17
2019-01-20T10:52:34.576Z,29.67
2019-01-20T10:55:22.052Z,25.60
2019-01-20T11:01:16.190Z,24.87
2019-01-20T11:04:08.718Z,30.10
2019-01-20T11:07:03.867Z,25.70
2019-01-20T11:09:52.783Z,24.97
2019-01-20T11:12:41.578Z,28.67
2019-01-20T11:15:29.077Z,28.90
2019-01-20T11:18:16.456Z,25.93
2019-01-20T11:24:17.868Z,31.83
2019-01-20T11:27:05.233Z,24.23
2019-01-20T11:29:52.647Z,31.45
2019-01-20T11:32:42.417Z,27.97
2019-01-20T11:35:28.555Z,25.97
2019-01-20T11:38:16.176Z,25.50
2019-01-20T11:41:03.608Z,26.37
2019-01-20T11:43:51.318Z,25.80
2019-01-20T11:46:38.802Z,25.47
2019-01-20T11:49:25.957Z,26.23
2019-01-20T11:52:13.647Z,26.50
2019-01-20T11:55:01.846Z,24.73
2019-01-20T11:57:54.152Z,25.47
2019-01-20T12:00:42.262Z,27.40
2019-01-20T12:03:38.616Z,26.87
2019-01-20T12:06:25.806Z,27.87
2019-01-20T12:09:13.311Z,27.67
2019-01-20T12:12:01.067Z,27.97
2019-01-20T12:14:50.464Z,27.23
2019-01-20T12:17:37.853Z,27.40
2019-01-20T12:20:25.319Z,27.00
2019-01-20T12:26:19.484Z,25.80
2019-01-20T12:29:06.662Z,34.50
2019-01-20T12:31:54.246Z,22.30
2019-01-20T12:34:42.111Z,23.83
2019-01-20T12:37:29.352Z,24.47
2019-01-20T12:40:41.334Z,28.47
2019-01-20T12:43:29.578Z,24.10
2019-01-20T12:46:17.905Z,26.73
2019-01-20T12:49:05.535Z,27.73
2019-01-20T12:51:53.254Z,27.03
2019-01-20T12:54:40.550Z,24.67
2019-01-20T12:57:27.900Z,22.30
2019-01-20T13:00:18.037Z,26.57
2019-01-20T13:03:05.576Z,21.97
2019-01-20T13:05:52.912Z,24.17
2019-01-20T13:08:40.519Z,24.80
2019-01-20T13:11:28.617Z,21.87
2019-01-20T13:17:22.228Z,25.70
2019-01-20T13:20:09.790Z,28.30
2019-01-20T13:22:57.699Z,27.20
2019-01-20T13:25:46.324Z,26.27
2019-01-20T13:28:33.727Z,21.33
2019-01-20T13:31:21.093Z,23.53
2019-01-20T13:34:08.525Z,23.30
2019-01-20T13:36:58.005Z,22.43
2019-01-20T13:39:45.172Z,21.00
2019-01-20T13:42:34.999Z,22.62
2019-01-20T13:45:23.302Z,24.73
2019-01-20T13:48:13.357Z,19.73
2019-01-20T13:51:02.146Z,20.50
2019-01-20T13:53:49.173Z,19.70
2019-01-20T13:56:36.552Z,22.57
2019-01-20T13:59:24.153Z,21.60
2019-01-20T14:02:11.540Z,20.17
2019-01-20T14:04:59.019Z,22.40
2019-01-20T14:07:46.763Z,24.63
2019-01-20T14:10:34.473Z,25.33
2019-01-20T14:13:22.038Z,22.07
2019-01-20T14:16:09.680Z,23.50
2019-01-20T14:19:07.358Z,24.93
2019-01-20T14:21:55.424Z,23.53
2019-01-20T14:24:44.914Z,22.73
2019-01-20T14:27:33.283Z,25.55
2019-01-20T14:30:20.906Z,24.50
2019-01-20T14:33:11.868Z,22.63
2019-01-20T14:36:00.530Z,28.20
2019-01-20T14:38:49.224Z,23.60
2019-01-20T14:41:36.659Z,25.30
2019-01-20T14:44:23.861Z,25.70
2019-01-20T14:47:11.572Z,27.80
2019-01-20T14:50:00.436Z,25.10
2019-01-20T14:52:47.646Z,26.03
2019-01-20T14:55:36.075Z,24.50
2019-01-20T14:58:23.064Z,28.85
2019-01-20T15:01:10.744Z,28.47
2019-01-20T15:03:59.226Z,24.97
2019-01-20T15:06:47.110Z,27.77
2019-01-20T15:09:34.462Z,25.67
2019-01-20T15:12:21.784Z,27.42
2019-01-20T15:15:09.711Z,26.70
2019-01-20T15:17:57.645Z,25.73
2019-01-20T15:20:45.942Z,26.23
2019-01-20T15:23:33.300Z,28.45
2019-01-20T15:26:24.142Z,26.27
2019-01-20T15:29:09.042Z,24.70
2019-01-20T15:31:58.588Z,25.90
2019-01-20T15:34:46.352Z,25.37
2019-01-20T15:37:35.430Z,24.03
2019-01-20T15:43:37.846Z,24.63
2019-01-20T15:46:34.199Z,24.60
2019-01-20T15:49:31.983Z,27.30
2019-01-20T15:52:24.096Z,24.93
2019-01-20T15:55:12.668Z,24.97
2019-01-20T15:57:59.828Z,31.77
2019-01-20T16:00:51.904Z,33.53
2019-01-20T16:03:40.204Z,27.93
2019-01-20T16:06:36.198Z,27.33
2019-01-20T16:09:29.208Z,28.07
2019-01-20T16:12:19.519Z,31.47
2019-01-20T16:18:19.272Z,28.97
2019-01-20T16:21:10.925Z,29.00
2019-01-20T16:24:00.440Z,27.50
2019-01-20T16:26:47.565Z,27.13
2019-01-20T16:29:36.630Z,29.20
2019-01-20T16:32:26.347Z,34.97
2019-01-20T16:35:16.330Z,31.90
2019-01-20T16:38:05.811Z,29.80
2019-01-20T16:40:55.655Z,31.03
2019-01-20T16:43:47.417Z,35.20
2019-01-20T16:46:37.695Z,30.63
2019-01-20T16:49:27.858Z,30.93
2019-01-20T17:14:08.181Z,32.63
2019-01-20T17:16:55.025Z,39.57
2019-01-20T17:19:57.974Z,52.03
2019-01-20T17:22:55.536Z,46.20
2019-01-20T17:25:42.844Z,45.40
2019-01-20T17:28:30.879Z,48.90
2019-01-20T17:34:26.684Z,36.90
2019-01-20T17:37:14.470Z,53.50
2019-01-20T17:40:03.309Z,56.77
2019-01-20T17:42:57.157Z,46.50
2019-01-20T17:45:53.298Z,45.87
2019-01-20T17:48:42.768Z,45.67
2019-01-20T17:51:30.021Z,35.33
2019-01-20T17:54:19.174Z,37.63
2019-01-20T17:57:06.981Z,49.90
2019-01-20T18:02:59.837Z,32.80
2019-01-20T18:05:49.894Z,36.57
2019-01-20T18:08:45.969Z,34.90
2019-01-20T18:11:33.308Z,78.33
2019-01-20T18:14:20.777Z,58.13
2019-01-20T18:17:07.660Z,41.43
2019-01-20T18:19:55.155Z,43.83
2019-01-20T18:22:42.841Z,37.93
2019-01-20T18:25:32.145Z,34.07
2019-01-20T18:28:20.653Z,43.20
2019-01-20T18:31:08.588Z,38.83
2019-01-20T18:33:55.947Z,44.47
2019-01-20T18:36:43.180Z,38.90
2019-01-20T18:39:33.108Z,32.97
2019-01-20T18:42:20.473Z,37.33
2019-01-20T18:45:23.412Z,39.93
2019-01-20T18:51:17.203Z,42.87
2019-01-20T18:54:04.792Z,41.77
2019-01-20T18:56:54.923Z,39.10
2019-01-20T18:59:42.116Z,35.58
2019-01-20T19:02:45.565Z,43.57
2019-01-20T19:08:47.063Z,41.37
2019-01-20T19:11:34.699Z,51.33
2019-01-20T19:17:28.066Z,54.63
2019-01-20T19:29:52.443Z,51.73
2019-01-20T19:32:40.019Z,40.67
2019-01-20T19:35:28.302Z,37.70
2019-01-20T19:38:14.431Z,39.37
2019-01-20T19:41:01.766Z,39.03
2019-01-20T19:43:49.609Z,36.87
2019-01-20T19:46:37.248Z,39.57
2019-01-20T19:49:25.050Z,35.97
2019-01-20T19:52:18.753Z,47.38
2019-01-20T19:55:10.057Z,40.33
2019-01-20T20:01:03.329Z,38.50
2019-01-20T20:03:51.461Z,38.63
2019-01-20T20:06:48.575Z,38.97
2019-01-20T20:09:38.866Z,43.20
2019-01-20T20:12:32.592Z,38.20
2019-01-20T20:25:01.518Z,43.70
2019-01-20T20:27:50.654Z,40.67
2019-01-20T20:30:49.977Z,45.07
2019-01-20T20:33:37.581Z,45.97
2019-01-20T20:36:26.341Z,46.03
2019-01-20T20:39:19.821Z,41.53
2019-01-20T20:42:08.697Z,38.70
2019-01-20T20:45:00.838Z,42.70
2019-01-20T20:47:51.925Z,43.37
2019-01-20T20:50:41.505Z,49.90
2019-01-20T20:56:44.718Z,42.63
2019-01-20T20:59:34.009Z,33.50
2019-01-20T21:02:24.812Z,37.30
2019-01-20T21:05:15.405Z,39.83
2019-01-20T21:08:03.766Z,43.23
2019-01-20T21:10:52.269Z,44.97
2019-01-20T21:13:39.646Z,56.60
2019-01-20T21:16:28.041Z,50.20
2019-01-20T21:19:15.118Z,40.33
2019-01-20T21:22:03.050Z,44.63
2019-01-20T21:25:00.803Z,44.40
2019-01-20T21:27:48.258Z,44.13
2019-01-20T21:30:36.538Z,43.20
2019-01-20T21:33:24.400Z,39.30
2019-01-20T21:36:19.837Z,42.00
2019-01-20T21:39:07.955Z,35.83
2019-01-20T21:41:55.401Z,37.07
2019-01-20T21:44:43.853Z,37.07
2019-01-20T21:47:31.268Z,38.60
2019-01-20T21:50:19.715Z,40.53
2019-01-20T21:53:06.845Z,38.23
2019-01-20T21:55:53.779Z,37.27
2019-01-20T21:58:41.653Z,36.93
2019-01-20T22:01:29.389Z,37.10
2019-01-20T22:04:17.168Z,42.87
2019-01-20T22:07:04.555Z,45.20
2019-01-20T22:12:58.606Z,37.10
2019-01-20T22:15:45.705Z,40.00
2019-01-20T22:18:32.959Z,42.70
2019-01-20T22:21:21.223Z,48.45
2019-01-20T22:27:14.381Z,39.60
2019-01-20T22:30:03.019Z,40.03
2019-01-20T22:32:51.581Z,37.80
2019-01-20T22:35:39.816Z,38.00
2019-01-20T22:38:28.734Z,34.97
2019-01-20T22:44:22.576Z,41.63
2019-01-20T22:50:23.483Z,45.37
2019-01-20T22:53:10.687Z,42.28
2019-01-20T22:55:58.175Z,44.23
2019-01-20T22:58:47.936Z,46.50
2019-01-20T23:04:41.540Z,42.43
2019-01-20T23:07:29.384Z,43.10
2019-01-20T23:13:23.118Z,51.40
2019-01-20T23:16:23.030Z,45.43
2019-01-20T23:22:19.284Z,62.25
2019-01-20T23:25:06.941Z,54.93
2019-01-20T23:27:55.328Z,52.60
2019-01-20T23:33:49.321Z,44.60
2019-01-20T23:36:36.916Z,45.87
2019-01-20T23:39:24.713Z,49.07
2019-01-20T23:42:12.089Z,51.77
2019-01-20T23:45:01.016Z,58.97
2019-01-20T23:50:54.851Z,53.30
2019-01-20T23:53:42.021Z,80.53
2019-01-20T23:56:29.608Z,67.30
2019-01-20T23:59:17.530Z,57.90
